createdAt,value
2019-01-30T00:01:23.231Z,100407.12
2019-01-30T00:03:49.352Z,100462.09
2019-01-30T00:06:15.517Z,100460.35
2019-01-30T00:08:41.540Z,100455.56
2019-01-30T00:11:07.531Z,100459.41
2019-01-30T00:13:33.452Z,100459.75
2019-01-30T00:15:59.585Z,100459.70
2019-01-30T00:18:25.682Z,100464.00
2019-01-30T00:20:51.821Z,100465.70
2019-01-30T00:23:17.930Z,100466.08
2019-01-30T00:25:44.315Z,100455.27
2019-01-30T00:28:10.221Z,100465.11
2019-01-30T00:30:36.235Z,100461.66
2019-01-30T00:33:02.388Z,100458.99
2019-01-30T00:35:28.284Z,100458.48
2019-01-30T00:37:54.219Z,100467.95
2019-01-30T00:40:21.144Z,100466.61
2019-01-30T00:42:47.264Z,100462.62
2019-01-30T00:45:14.881Z,100469.93
2019-01-30T00:47:40.986Z,100471.20
2019-01-30T00:50:12.956Z,100417.42
2019-01-30T00:52:39.064Z,100470.73
2019-01-30T00:55:06.821Z,100464.23
2019-01-30T00:57:32.848Z,100469.77
2019-01-30T00:59:58.813Z,100474.45
2019-01-30T01:02:24.918Z,100467.09
2019-01-30T01:04:51.040Z,100476.98
2019-01-30T01:07:16.987Z,100476.11
2019-01-30T01:09:43.110Z,100472.62
2019-01-30T01:12:09.268Z,100478.20
2019-01-30T01:14:35.355Z,100478.19
2019-01-30T01:17:01.262Z,100476.42
2019-01-30T01:19:27.308Z,100490.19
2019-01-30T01:21:53.306Z,100491.06
2019-01-30T01:24:19.342Z,100427.27
2019-01-30T01:26:45.541Z,100476.38
2019-01-30T01:29:11.553Z,100490.19
2019-01-30T01:31:37.547Z,100492.34
2019-01-30T01:34:03.814Z,100492.75
2019-01-30T01:36:29.718Z,100497.91
2019-01-30T01:38:55.928Z,100495.30
2019-01-30T01:41:22.054Z,100500.45
2019-01-30T01:43:48.054Z,100499.55
2019-01-30T01:46:14.544Z,100519.75
2019-01-30T01:48:40.561Z,100506.39
2019-01-30T01:51:06.467Z,100508.91
2019-01-30T01:53:32.496Z,100507.22
2019-01-30T01:55:58.414Z,100513.25
2019-01-30T01:58:24.396Z,100514.13
2019-01-30T02:00:50.529Z,100517.56
2019-01-30T02:03:16.571Z,100519.70
2019-01-30T02:05:42.695Z,100518.36
2019-01-30T02:08:08.716Z,100527.78
2019-01-30T02:10:35.729Z,100533.35
2019-01-30T02:13:01.732Z,100526.05
2019-01-30T02:15:27.866Z,100532.53
2019-01-30T02:17:53.989Z,100535.09
2019-01-30T02:20:23.010Z,100535.94
2019-01-30T02:22:50.661Z,100538.05
2019-01-30T02:25:16.779Z,100538.44
2019-01-30T02:27:43.102Z,100539.30
2019-01-30T02:30:20.812Z,100542.26
2019-01-30T02:32:46.946Z,100546.98
2019-01-30T02:35:13.161Z,100543.99
2019-01-30T02:37:39.221Z,100549.98
2019-01-30T02:40:08.253Z,100547.78
2019-01-30T02:42:34.276Z,100555.86
2019-01-30T02:45:00.207Z,100539.04
2019-01-30T02:47:26.185Z,100550.95
2019-01-30T02:49:52.335Z,100544.61
2019-01-30T02:52:18.430Z,100544.61
2019-01-30T02:54:44.716Z,100550.30
2019-01-30T02:57:10.640Z,100550.64
2019-01-30T02:59:36.524Z,100550.18
2019-01-30T03:02:04.641Z,100555.69
2019-01-30T03:04:30.676Z,100553.44
2019-01-30T03:06:56.766Z,100554.26
2019-01-30T03:09:22.675Z,100561.49
2019-01-30T03:11:48.583Z,100561.46
2019-01-30T03:14:14.482Z,100558.50
2019-01-30T03:16:40.523Z,100565.03
2019-01-30T03:19:06.554Z,100563.80
2019-01-30T03:21:32.564Z,100560.47
2019-01-30T03:23:58.590Z,100567.81
2019-01-30T03:26:24.502Z,100561.34
2019-01-30T03:28:50.783Z,100562.11
2019-01-30T03:31:19.229Z,100567.67
2019-01-30T03:33:44.630Z,100571.10
2019-01-30T03:36:10.620Z,100580.06
2019-01-30T03:38:36.564Z,100577.02
2019-01-30T03:41:02.960Z,100579.09
2019-01-30T03:43:29.085Z,100581.62
2019-01-30T03:45:55.092Z,100555.89
2019-01-30T03:48:21.128Z,100579.86
2019-01-30T03:50:47.122Z,100578.63
2019-01-30T03:53:13.258Z,100581.23
2019-01-30T03:55:39.366Z,100581.23
2019-01-30T03:58:05.409Z,100576.48
2019-01-30T04:00:31.541Z,100576.95
2019-01-30T04:02:57.433Z,100578.25
2019-01-30T04:05:23.451Z,100579.16
2019-01-30T04:07:49.582Z,100574.00
2019-01-30T04:10:17.691Z,100574.06
2019-01-30T04:12:43.721Z,100577.11
2019-01-30T04:15:10.047Z,100577.55
2019-01-30T04:17:36.179Z,100581.45
2019-01-30T04:20:04.787Z,100575.91
2019-01-30T04:22:30.924Z,100581.94
2019-01-30T04:24:56.931Z,100575.08
2019-01-30T04:27:22.853Z,100580.65
2019-01-30T04:29:48.988Z,100583.26
2019-01-30T04:32:15.008Z,100584.58
2019-01-30T04:34:41.044Z,100581.18
2019-01-30T04:37:07.210Z,100582.91
2019-01-30T04:39:33.213Z,100584.20
2019-01-30T04:41:59.154Z,100587.72
2019-01-30T04:44:25.089Z,100585.57
2019-01-30T04:46:51.008Z,100580.38
2019-01-30T04:49:17.088Z,100578.66
2019-01-30T04:51:42.998Z,100576.90
2019-01-30T04:54:09.100Z,100585.87
2019-01-30T04:56:35.252Z,100590.55
2019-01-30T04:59:01.341Z,100595.28
2019-01-30T05:01:27.271Z,100592.64
2019-01-30T05:03:53.295Z,100599.49
2019-01-30T05:06:19.397Z,100600.75
2019-01-30T05:08:45.428Z,100602.39
2019-01-30T05:11:11.369Z,100594.19
2019-01-30T05:13:37.321Z,100603.59
2019-01-30T05:16:03.407Z,100607.42
2019-01-30T05:18:29.340Z,100609.09
2019-01-30T05:20:55.362Z,100607.36
2019-01-30T05:23:21.363Z,100612.92
2019-01-30T05:25:47.365Z,100615.09
2019-01-30T05:28:13.508Z,100617.23
2019-01-30T05:30:39.846Z,100618.49
2019-01-30T05:33:05.858Z,100617.98
2019-01-30T05:35:32.008Z,100615.85
2019-01-30T05:37:58.156Z,100619.72
2019-01-30T05:40:24.258Z,100619.72
2019-01-30T05:42:50.298Z,100615.85
2019-01-30T05:45:16.652Z,100615.41
2019-01-30T05:47:42.743Z,100621.45
2019-01-30T05:50:09.784Z,100612.80
2019-01-30T05:52:35.869Z,100619.28
2019-01-30T05:55:02.072Z,100618.84
2019-01-30T05:57:28.230Z,100625.72
2019-01-30T05:59:54.357Z,100623.62
2019-01-30T06:02:20.463Z,100560.23
2019-01-30T06:04:46.809Z,100620.19
2019-01-30T06:07:12.866Z,100620.19
2019-01-30T06:09:38.937Z,100623.17
2019-01-30T06:12:04.862Z,100623.20
2019-01-30T06:14:30.976Z,100624.97
2019-01-30T06:16:56.995Z,100627.14
2019-01-30T06:19:22.990Z,100628.05
2019-01-30T06:21:49.020Z,100628.48
2019-01-30T06:24:16.309Z,100625.12
2019-01-30T06:26:42.336Z,100619.56
2019-01-30T06:29:08.385Z,100624.27
2019-01-30T06:31:34.578Z,100629.02
2019-01-30T06:34:00.460Z,100637.67
2019-01-30T06:36:26.390Z,100638.52
2019-01-30T06:38:52.536Z,100646.25
2019-01-30T06:41:18.635Z,100639.39
2019-01-30T06:43:44.657Z,100641.06
2019-01-30T06:46:10.581Z,100641.53
2019-01-30T06:48:36.590Z,100644.52
2019-01-30T06:51:02.800Z,100643.20
2019-01-30T06:53:28.821Z,100642.35
2019-01-30T06:55:54.940Z,100647.98
2019-01-30T06:58:20.834Z,100651.34
2019-01-30T07:00:46.892Z,100644.89
2019-01-30T07:03:13.004Z,100650.02
2019-01-30T07:05:39.035Z,100647.38
2019-01-30T07:08:05.076Z,100652.51
2019-01-30T07:10:31.126Z,100655.08
2019-01-30T07:12:57.248Z,100661.94
2019-01-30T07:15:23.398Z,100668.38
2019-01-30T07:17:49.529Z,100672.22
2019-01-30T07:20:15.882Z,100667.00
2019-01-30T07:22:42.064Z,100671.27
2019-01-30T07:25:13.552Z,100674.19
2019-01-30T07:27:39.915Z,100685.34
2019-01-30T07:30:20.964Z,100672.73
2019-01-30T07:32:47.126Z,100674.80
2019-01-30T07:35:13.274Z,100691.83
2019-01-30T07:37:39.449Z,100694.30
2019-01-30T07:40:08.654Z,100690.80
2019-01-30T07:42:34.673Z,100690.73
2019-01-30T07:45:00.582Z,100697.52
2019-01-30T07:47:26.645Z,100690.97
2019-01-30T07:49:52.547Z,100700.31
2019-01-30T07:52:18.659Z,100698.08
2019-01-30T07:54:44.791Z,100698.00
2019-01-30T07:57:10.685Z,100702.64
2019-01-30T07:59:36.640Z,100706.06
2019-01-30T08:02:02.684Z,100707.34
2019-01-30T08:04:28.697Z,100715.07
2019-01-30T08:06:54.714Z,100715.95
2019-01-30T08:09:20.657Z,100715.44
2019-01-30T08:11:46.658Z,100714.11
2019-01-30T08:14:12.604Z,100727.50
2019-01-30T08:16:38.617Z,100730.12
2019-01-30T08:19:04.768Z,100734.83
2019-01-30T08:21:30.773Z,100742.55
2019-01-30T08:23:57.088Z,100739.91
2019-01-30T08:26:25.613Z,100739.06
2019-01-30T08:28:52.061Z,100739.02
2019-01-30T08:31:18.320Z,100740.67
2019-01-30T08:33:44.667Z,100745.78
2019-01-30T08:36:12.635Z,100744.12
2019-01-30T08:38:38.559Z,100737.62
2019-01-30T08:41:04.830Z,100746.16
2019-01-30T08:43:30.830Z,100741.84
2019-01-30T08:45:57.190Z,100740.92
2019-01-30T08:48:23.290Z,100740.04
2019-01-30T08:50:49.393Z,100738.27
2019-01-30T08:53:15.345Z,100750.74
2019-01-30T08:55:41.463Z,100749.02
2019-01-30T08:58:07.597Z,100754.97
2019-01-30T09:00:33.515Z,100754.16
2019-01-30T09:02:59.541Z,100754.56
2019-01-30T09:05:25.911Z,100750.27
2019-01-30T09:07:52.500Z,100755.85
2019-01-30T09:10:21.629Z,100758.06
2019-01-30T09:12:47.730Z,100758.10
2019-01-30T09:15:15.739Z,100771.42
2019-01-30T09:17:41.765Z,100773.99
2019-01-30T09:20:11.378Z,100777.41
2019-01-30T09:22:37.392Z,100780.88
2019-01-30T09:25:07.100Z,100781.35
2019-01-30T09:27:33.033Z,100780.02
2019-01-30T09:30:00.865Z,100783.89
2019-01-30T09:32:26.782Z,100786.87
2019-01-30T09:34:53.023Z,100796.32
2019-01-30T09:37:19.130Z,100797.20
2019-01-30T09:39:45.024Z,100795.47
2019-01-30T09:42:11.045Z,100792.42
2019-01-30T09:44:37.003Z,100800.18
2019-01-30T09:47:03.183Z,100798.49
2019-01-30T09:49:29.202Z,100801.95
2019-01-30T09:51:55.301Z,100814.86
2019-01-30T09:54:21.246Z,100810.60
2019-01-30T09:56:48.461Z,100811.89
2019-01-30T09:59:14.585Z,100821.42
2019-01-30T10:01:40.704Z,100826.17
2019-01-30T10:04:06.834Z,100819.69
2019-01-30T10:06:32.744Z,100829.55
2019-01-30T10:08:58.856Z,100829.52
2019-01-30T10:11:24.897Z,100835.58
2019-01-30T10:13:50.803Z,100835.58
2019-01-30T10:16:16.714Z,100839.89
2019-01-30T10:18:42.729Z,100846.37
2019-01-30T10:21:08.856Z,100868.38
2019-01-30T10:23:34.990Z,100863.11
2019-01-30T10:26:00.985Z,100860.00
2019-01-30T10:28:27.032Z,100865.12
2019-01-30T10:30:53.036Z,100865.23
2019-01-30T10:33:19.243Z,100865.23
2019-01-30T10:35:45.656Z,100871.75
2019-01-30T10:38:11.895Z,100888.94
2019-01-30T10:40:38.100Z,100879.56
2019-01-30T10:43:05.003Z,100881.78
2019-01-30T10:45:31.142Z,100886.48
2019-01-30T10:47:57.058Z,100886.53
2019-01-30T10:50:25.019Z,100890.44
2019-01-30T10:52:50.904Z,100887.86
2019-01-30T10:55:22.555Z,100891.31
2019-01-30T10:57:50.516Z,100881.05
2019-01-30T11:00:19.737Z,100895.78
2019-01-30T11:02:46.520Z,100893.77
2019-01-30T11:05:13.589Z,100892.48
2019-01-30T11:07:39.714Z,100889.02
2019-01-30T11:10:09.214Z,100885.20
2019-01-30T11:12:35.403Z,100890.80
2019-01-30T11:15:03.109Z,100885.28
2019-01-30T11:17:29.283Z,100888.78
2019-01-30T11:19:55.203Z,100890.52
2019-01-30T11:22:21.332Z,100897.00
2019-01-30T11:24:47.334Z,100890.92
2019-01-30T11:27:13.487Z,100899.58
2019-01-30T11:29:39.498Z,100898.33
2019-01-30T11:32:05.533Z,100906.05
2019-01-30T11:34:31.561Z,100910.72
2019-01-30T11:37:00.106Z,100909.36
2019-01-30T11:39:25.839Z,100908.88
2019-01-30T11:41:51.780Z,100907.50
2019-01-30T11:44:17.819Z,100910.08
2019-01-30T11:46:43.989Z,100909.27
2019-01-30T11:49:09.924Z,100910.96
2019-01-30T11:51:36.064Z,100913.09
2019-01-30T11:54:02.479Z,100908.30
2019-01-30T11:56:28.512Z,100909.95
2019-01-30T11:58:54.567Z,100912.97
2019-01-30T12:01:20.713Z,100915.55
2019-01-30T12:03:46.814Z,100914.63
2019-01-30T12:06:14.142Z,100911.13
2019-01-30T12:08:40.640Z,100919.28
2019-01-30T12:11:06.670Z,100916.27
2019-01-30T12:13:32.706Z,100925.73
2019-01-30T12:15:58.739Z,100923.59
2019-01-30T12:18:24.966Z,100921.86
2019-01-30T12:20:51.976Z,100927.42
2019-01-30T12:23:18.217Z,100925.69
2019-01-30T12:25:44.358Z,100918.28
2019-01-30T12:28:10.559Z,100924.67
2019-01-30T12:30:36.688Z,100921.30
2019-01-30T12:33:02.807Z,100925.16
2019-01-30T12:35:28.951Z,100921.73
2019-01-30T12:37:55.145Z,100926.84
2019-01-30T12:40:22.687Z,100925.52
2019-01-30T12:42:49.400Z,100939.44
2019-01-30T12:45:36.206Z,100940.52
2019-01-30T12:48:02.514Z,100936.52
2019-01-30T12:50:28.919Z,100934.25
2019-01-30T12:52:55.029Z,100878.22
2019-01-30T12:55:21.307Z,100944.73
2019-01-30T12:57:47.552Z,100948.95
2019-01-30T13:00:28.621Z,100957.95
2019-01-30T13:02:54.752Z,100961.33
2019-01-30T13:05:23.191Z,100961.69
2019-01-30T13:07:49.189Z,100980.02
2019-01-30T13:10:15.343Z,100970.91
2019-01-30T13:12:41.407Z,100976.50
2019-01-30T13:15:12.793Z,100979.07
2019-01-30T13:17:38.818Z,100978.19
2019-01-30T13:20:08.556Z,100982.45
2019-01-30T13:22:34.600Z,100987.14
2019-01-30T13:25:00.497Z,100988.84
2019-01-30T13:27:26.453Z,100990.96
2019-01-30T13:29:52.611Z,100992.30
2019-01-30T13:32:18.634Z,100991.94
2019-01-30T13:34:48.982Z,100994.13
2019-01-30T13:37:12.669Z,101003.56
2019-01-30T13:39:38.941Z,100989.36
2019-01-30T13:42:05.265Z,100994.42
2019-01-30T13:44:31.309Z,100998.68
2019-01-30T13:46:57.309Z,100994.23
2019-01-30T13:49:23.341Z,100989.80
2019-01-30T13:51:49.413Z,100985.04
2019-01-30T13:54:15.554Z,100990.49
2019-01-30T13:56:41.547Z,100987.83
2019-01-30T13:59:07.489Z,100996.25
2019-01-30T14:01:33.577Z,100997.83
2019-01-30T14:03:59.505Z,100999.42
2019-01-30T14:06:25.430Z,101001.06
2019-01-30T14:08:51.687Z,101005.25
2019-01-30T14:11:17.638Z,101005.20
2019-01-30T14:13:43.552Z,101001.59
2019-01-30T14:16:09.528Z,101002.69
2019-01-30T14:18:35.404Z,101008.97
2019-01-30T14:21:02.529Z,101014.46
2019-01-30T14:23:30.487Z,101017.33
2019-01-30T14:25:56.675Z,101026.61
2019-01-30T14:28:22.582Z,101019.65
2019-01-30T14:30:48.520Z,101029.08
2019-01-30T14:33:14.685Z,101037.19
2019-01-30T14:35:40.806Z,101040.06
2019-01-30T14:38:07.052Z,101045.14
2019-01-30T14:40:33.336Z,101047.72
2019-01-30T14:42:59.455Z,101048.05
2019-01-30T14:45:25.439Z,101050.52
2019-01-30T14:47:51.656Z,101046.66
2019-01-30T14:50:25.877Z,101043.20
2019-01-30T14:52:51.898Z,101052.44
2019-01-30T14:55:18.460Z,101052.26
2019-01-30T14:57:44.603Z,101060.64
2019-01-30T15:00:14.564Z,101058.87
2019-01-30T15:02:40.771Z,101056.73
2019-01-30T15:05:21.539Z,101061.04
2019-01-30T15:07:38.194Z,101056.35
2019-01-30T15:10:07.945Z,101057.80
2019-01-30T15:12:34.059Z,101057.80
2019-01-30T15:15:00.047Z,101062.08
2019-01-30T15:17:27.660Z,101057.69
2019-01-30T15:19:53.628Z,101063.09
2019-01-30T15:22:19.749Z,101065.45
2019-01-30T15:24:45.790Z,101068.14
2019-01-30T15:27:11.711Z,101074.41
2019-01-30T15:29:37.703Z,101084.02
2019-01-30T15:32:05.312Z,101079.89
2019-01-30T15:34:31.337Z,101092.44
2019-01-30T15:36:57.368Z,101089.20
2019-01-30T15:39:23.546Z,101099.34
2019-01-30T15:41:49.772Z,101100.45
2019-01-30T15:44:15.657Z,101097.89
2019-01-30T15:46:41.773Z,101094.31
2019-01-30T15:49:07.680Z,101098.80
2019-01-30T15:51:33.714Z,101103.94
2019-01-30T15:54:00.899Z,101099.62
2019-01-30T15:56:26.853Z,101109.50
2019-01-30T15:58:53.006Z,101103.48
2019-01-30T16:01:19.443Z,101112.80
2019-01-30T16:03:45.554Z,101110.06
2019-01-30T16:06:11.489Z,101121.55
2019-01-30T16:08:37.416Z,101118.47
2019-01-30T16:11:03.559Z,101129.84
2019-01-30T16:13:29.537Z,101124.92
2019-01-30T16:16:00.476Z,101129.54
2019-01-30T16:18:27.627Z,101123.86
2019-01-30T16:20:53.789Z,101128.41
2019-01-30T16:23:19.714Z,101127.41
2019-01-30T16:25:45.856Z,101131.95
2019-01-30T16:28:12.067Z,101128.81
2019-01-30T16:30:37.976Z,101130.38
2019-01-30T16:33:04.351Z,101120.02
2019-01-30T16:35:31.173Z,101136.29
2019-01-30T16:37:57.312Z,101135.67
2019-01-30T16:40:23.431Z,101140.67
2019-01-30T16:42:49.758Z,101133.22
2019-01-30T16:45:24.200Z,101134.84
2019-01-30T16:47:50.145Z,101144.63
2019-01-30T16:50:17.900Z,101149.46
2019-01-30T16:52:43.991Z,101157.16
2019-01-30T16:55:12.599Z,101156.87
2019-01-30T16:57:38.847Z,101162.63
2019-01-30T17:00:08.690Z,101175.71
2019-01-30T17:02:34.821Z,101169.17
2019-01-30T17:05:00.944Z,101173.34
2019-01-30T17:07:26.910Z,101175.13
2019-01-30T17:09:52.834Z,101172.82
2019-01-30T17:12:18.867Z,101182.48
2019-01-30T17:14:44.820Z,101177.95
2019-01-30T17:17:10.739Z,101180.88
2019-01-30T17:19:36.795Z,101180.25
2019-01-30T17:22:02.936Z,101187.02
2019-01-30T17:24:28.956Z,101193.68
2019-01-30T17:26:54.915Z,101197.33
2019-01-30T17:29:22.746Z,101195.41
2019-01-30T17:31:49.000Z,101200.40
2019-01-30T17:34:14.976Z,101197.99
2019-01-30T17:36:41.069Z,101196.02
2019-01-30T17:39:07.420Z,101195.42
2019-01-30T17:41:33.554Z,101194.95
2019-01-30T17:43:59.649Z,101191.90
2019-01-30T17:46:27.881Z,101194.75
2019-01-30T17:48:53.710Z,101189.55
2019-01-30T17:51:19.847Z,101191.30
2019-01-30T17:53:45.970Z,101199.52
2019-01-30T17:56:12.120Z,101194.39
2019-01-30T17:58:38.406Z,101195.96
2019-01-30T18:01:05.587Z,101203.97
2019-01-30T18:03:31.539Z,101204.61
2019-01-30T18:05:57.679Z,101206.11
2019-01-30T18:08:23.721Z,101208.03
2019-01-30T18:10:50.313Z,101203.13
2019-01-30T18:13:16.457Z,101208.50
2019-01-30T18:15:42.595Z,101205.73
2019-01-30T18:18:08.624Z,101207.61
2019-01-30T18:20:34.698Z,101206.97
2019-01-30T18:23:00.857Z,101206.83
2019-01-30T18:25:26.998Z,101196.77
2019-01-30T18:27:52.997Z,101195.48
2019-01-30T18:30:20.535Z,101202.77
2019-01-30T18:32:46.661Z,101208.36
2019-01-30T18:35:13.241Z,101203.09
2019-01-30T18:37:39.406Z,101208.36
2019-01-30T18:40:15.100Z,101215.17
2019-01-30T18:42:41.427Z,101216.38
2019-01-30T18:45:14.005Z,101213.41
2019-01-30T18:47:40.054Z,101216.73
2019-01-30T18:50:09.747Z,101225.16
2019-01-30T18:52:35.712Z,101234.36
2019-01-30T18:55:02.052Z,101233.67
2019-01-30T18:57:28.171Z,101238.07
2019-01-30T18:59:54.293Z,101234.91
2019-01-30T19:02:21.165Z,101234.02
2019-01-30T19:04:47.599Z,101235.61
2019-01-30T19:07:13.533Z,101231.70
2019-01-30T19:09:39.436Z,101249.67
2019-01-30T19:12:05.583Z,101228.19
2019-01-30T19:14:31.604Z,101233.10
2019-01-30T19:16:57.767Z,101235.03
2019-01-30T19:19:23.877Z,101237.51
2019-01-30T19:21:49.826Z,101247.09
2019-01-30T19:24:15.737Z,101246.95
2019-01-30T19:26:41.778Z,101248.39
2019-01-30T19:29:07.930Z,101249.20
2019-01-30T19:31:33.877Z,101256.07
2019-01-30T19:34:00.003Z,101253.20
2019-01-30T19:36:25.939Z,101257.68
2019-01-30T19:38:52.117Z,101255.52
2019-01-30T19:41:18.195Z,101255.83
2019-01-30T19:43:44.214Z,101254.98
2019-01-30T19:46:10.231Z,101256.67
2019-01-30T19:48:36.254Z,101263.19
2019-01-30T19:51:02.382Z,101266.38
2019-01-30T19:53:28.436Z,101268.38
2019-01-30T19:55:54.329Z,101271.17
2019-01-30T19:58:20.448Z,101268.63
2019-01-30T20:00:46.546Z,101275.33
2019-01-30T20:03:15.312Z,101276.87
2019-01-30T20:05:41.429Z,101274.70
2019-01-30T20:08:07.543Z,101272.61
2019-01-30T20:10:34.757Z,101271.91
2019-01-30T20:13:01.213Z,101278.45
2019-01-30T20:15:27.742Z,101276.86
2019-01-30T20:17:55.822Z,101278.30
2019-01-30T20:20:21.968Z,101279.16
2019-01-30T20:22:47.984Z,101277.64
2019-01-30T20:25:16.452Z,101279.88
2019-01-30T20:27:42.489Z,101278.60
2019-01-30T20:30:18.282Z,101282.44
2019-01-30T20:32:44.510Z,101280.34
2019-01-30T20:35:11.235Z,101281.23
2019-01-30T20:37:37.799Z,101285.92
2019-01-30T20:40:12.879Z,101288.48
2019-01-30T20:42:38.916Z,101290.19
2019-01-30T20:45:08.512Z,101296.23
2019-01-30T20:47:34.630Z,101299.22
2019-01-30T20:50:00.698Z,101308.16
2019-01-30T20:52:26.612Z,101309.52
2019-01-30T20:54:59.663Z,101311.11
2019-01-30T20:57:20.687Z,101314.95
2019-01-30T20:59:46.624Z,101315.76
2019-01-30T21:02:12.771Z,101317.42
2019-01-30T21:04:38.833Z,101322.15
2019-01-30T21:07:04.966Z,101325.09
2019-01-30T21:09:30.904Z,101324.63
2019-01-30T21:11:57.038Z,101340.75
2019-01-30T21:14:23.093Z,101334.63
2019-01-30T21:16:49.154Z,101340.28
2019-01-30T21:19:15.187Z,101341.32
2019-01-30T21:21:41.244Z,101339.97
2019-01-30T21:24:07.405Z,101340.05
2019-01-30T21:26:33.429Z,101347.72
2019-01-30T21:28:59.383Z,101342.91
2019-01-30T21:31:25.293Z,101352.67
2019-01-30T21:33:51.471Z,101361.15
2019-01-30T21:36:17.827Z,101357.70
2019-01-30T21:38:43.853Z,101361.53
2019-01-30T21:41:10.077Z,101362.34
2019-01-30T21:43:36.125Z,101367.30
2019-01-30T21:46:03.741Z,101371.75
2019-01-30T21:48:32.215Z,101363.14
2019-01-30T21:51:00.193Z,101364.34
2019-01-30T21:53:27.566Z,101367.29
2019-01-30T21:55:53.702Z,101374.95
2019-01-30T21:58:19.706Z,101381.19
2019-01-30T22:00:45.725Z,101380.31
2019-01-30T22:03:11.817Z,101385.86
2019-01-30T22:05:37.829Z,101385.23
2019-01-30T22:08:03.956Z,101388.01
2019-01-30T22:10:30.091Z,101396.06
2019-01-30T22:12:56.271Z,101397.59
2019-01-30T22:15:22.383Z,101396.63
2019-01-30T22:17:48.498Z,101394.28
2019-01-30T22:20:16.758Z,101391.86
2019-01-30T22:22:42.862Z,101398.45
2019-01-30T22:25:19.980Z,101400.13
2019-01-30T22:27:39.561Z,101401.56
2019-01-30T22:30:12.206Z,101402.55
2019-01-30T22:32:38.107Z,101397.44
2019-01-30T22:35:07.040Z,101396.97
2019-01-30T22:37:33.153Z,101389.77
2019-01-30T22:39:59.172Z,101393.60
2019-01-30T22:42:25.390Z,101397.44
2019-01-30T22:44:51.562Z,101396.55
2019-01-30T22:47:17.525Z,101401.88
2019-01-30T22:49:43.612Z,101409.20
2019-01-30T22:52:09.649Z,101412.69
2019-01-30T22:54:35.594Z,101426.17
2019-01-30T22:57:01.497Z,101425.20
2019-01-30T22:59:29.320Z,101434.47
2019-01-30T23:01:56.026Z,101434.86
2019-01-30T23:04:34.755Z,101433.49
2019-01-30T23:07:04.465Z,101435.66
2019-01-30T23:09:48.662Z,101434.30
2019-01-30T23:12:21.373Z,101435.48
2019-01-30T23:15:12.273Z,101437.32
2019-01-30T23:17:42.001Z,101440.43
2019-01-30T23:20:14.070Z,101439.58
2019-01-30T23:22:58.724Z,101442.90
2019-01-30T23:25:49.553Z,101442.98
2019-01-30T23:28:40.567Z,101446.81
2019-01-30T23:31:28.278Z,101441.97
2019-01-30T23:34:29.616Z,101441.45
2019-01-30T23:37:02.128Z,101448.56
2019-01-30T23:39:43.814Z,101458.86
2019-01-30T23:42:22.323Z,101453.28
2019-01-30T23:45:01.148Z,101450.64
2019-01-30T23:47:45.306Z,101447.59
2019-01-30T23:50:21.323Z,101445.84
2019-01-30T23:53:13.509Z,101445.36
2019-01-30T23:56:13.687Z,101444.17
2019-01-30T23:58:55.182Z,101432.34
